Time;durP1;ratioP1;P1;durP2;ratioP2;P2;SDS_P1;SDS_P2;PMS_P1;PMS_P2;Temp;Humidity;BMP_temperature;BMP_pressure;BME280_temperature;BME280_humidity;BME280_pressure;Samples;Min_cycle;Max_cycle;Signal;HPM_P1;HPM_P2
2023/10/21 00:01:09;;;;;;;3.03;2.80;;;;;;;22.19;60.26;95095.28;5020129;28;20603;-23
2023/10/21 00:03:35;;;;;;;3.00;2.80;;;;;;;22.18;59.92;95088.50;5024201;28;20217;-23
2023/10/21 00:06:03;;;;;;;2.90;2.70;;;;;;;22.19;60.05;95095.28;5014015;28;20440;-24
2023/10/21 00:08:30;;;;;;;3.27;2.97;;;;;;;22.18;60.13;95111.50;5016248;28;20222;-22
2023/10/21 00:11:04;;;;;;;2.90;2.60;;;;;;;22.19;59.99;95113.19;5014088;28;20206;-23
2023/10/21 00:13:31;;;;;;;3.00;2.70;;;;;;;22.18;60.11;95116.63;5013839;28;20227;-22
2023/10/21 00:15:58;;;;;;;2.80;2.60;;;;;;;22.18;60.02;95114.06;5026830;28;20734;-22
2023/10/21 00:18:25;;;;;;;3.50;3.20;;;;;;;22.18;60.06;95127.72;5014007;28;20608;-22
2023/10/21 00:20:53;;;;;;;3.53;2.90;;;;;;;22.19;59.98;95131.09;5020517;28;20691;-23
2023/10/21 00:23:21;;;;;;;2.93;2.70;;;;;;;22.19;59.99;95143.88;5026133;28;20224;-23
2023/10/21 00:25:47;;;;;;;3.20;2.90;;;;;;;22.18;60.26;95153.31;5013627;28;20280;-23
2023/10/21 00:28:14;;;;;;;3.40;3.00;;;;;;;22.19;60.27;95156.69;5013988;28;20240;-22
2023/10/21 00:30:45;;;;;;;3.10;2.80;;;;;;;22.19;59.98;95154.13;5008368;28;20631;-23
2023/10/21 00:33:15;;;;;;;2.97;2.77;;;;;;;22.18;60.31;95162.69;5012683;28;20592;-22
2023/10/21 00:35:47;;;;;;;3.33;3.03;;;;;;;22.18;60.31;95162.69;5014915;28;20211;-23
2023/10/21 00:38:14;;;;;;;2.97;2.73;;;;;;;22.17;60.21;95169.50;5019791;28;20261;-22
2023/10/21 00:40:51;;;;;;;3.23;2.93;;;;;;;22.18;60.21;95170.34;5014326;28;20206;-23
2023/10/21 00:43:34;;;;;;;2.97;2.67;;;;;;;22.18;60.12;95172.91;5011377;28;20613;-23
2023/10/21 00:46:02;;;;;;;3.10;2.57;;;;;;;22.02;60.15;95149.19;5019358;28;20210;-23
2023/10/21 00:48:29;;;;;;;3.00;2.70;;;;;;;22.18;60.24;95175.47;5009346;28;20210;-23
2023/10/21 00:50:56;;;;;;;3.50;3.20;;;;;;;22.17;60.34;95189.94;5015846;28;20284;-23
2023/10/21 00:53:22;;;;;;;3.03;2.67;;;;;;;22.17;60.05;95195.06;5018214;28;20229;-29
2023/10/21 00:55:50;;;;;;;2.60;2.40;;;;;;;22.17;60.29;95202.75;4989274;28;20200;-23
2023/10/21 00:58:16;;;;;;;3.00;2.70;;;;;;;22.18;60.20;95201.03;5009645;28;20298;-22
2023/10/21 01:00:43;;;;;;;4.80;2.87;;;;;;;22.17;60.16;95205.31;5014187;28;20263;-23
2023/10/21 01:03:10;;;;;;;2.93;2.63;;;;;;;22.18;60.16;95213.84;5004658;28;20277;-22
2023/10/21 01:05:37;;;;;;;2.87;2.50;;;;;;;22.18;60.27;95224.94;4998551;28;20290;-25
2023/10/21 01:08:04;;;;;;;3.30;2.70;;;;;;;22.17;60.35;95218.09;5020431;28;20256;-23
2023/10/21 01:10:30;;;;;;;2.77;2.57;;;;;;;22.18;60.23;95232.59;5019282;28;20247;-22
2023/10/21 01:12:57;;;;;;;3.17;2.87;;;;;;;22.18;60.52;95229.19;5018029;28;20232;-24
2023/10/21 01:15:23;;;;;;;3.10;2.77;;;;;;;22.17;60.52;95233.44;5015890;28;20195;-28
2023/10/21 01:17:50;;;;;;;2.93;2.70;;;;;;;22.16;60.60;95234.31;4997633;28;20210;-22
2023/10/21 01:20:17;;;;;;;2.67;2.47;;;;;;;22.17;60.28;95235.19;5012694;28;20214;-22
2023/10/21 01:22:44;;;;;;;2.70;2.50;;;;;;;22.17;60.29;95227.50;5010079;28;20233;-23
2023/10/21 01:25:11;;;;;;;2.60;2.40;;;;;;;22.17;60.49;95230.88;5017816;28;20313;-23
2023/10/21 01:27:37;;;;;;;2.50;2.30;;;;;;;22.17;60.37;95224.94;5016815;28;20209;-23
2023/10/21 01:30:07;;;;;;;4.73;2.60;;;;;;;22.17;60.41;95227.50;5012993;28;20213;-23
2023/10/21 01:32:34;;;;;;;3.30;2.80;;;;;;;22.17;60.20;95225.78;5011181;28;20221;-22
2023/10/21 01:35:01;;;;;;;2.70;2.50;;;;;;;22.17;60.28;95225.78;5023755;28;20336;-22
2023/10/21 01:37:27;;;;;;;2.97;2.70;;;;;;;22.17;60.21;95225.78;5016237;28;20251;-22
2023/10/21 01:39:54;;;;;;;2.60;2.40;;;;;;;22.17;60.25;95236.00;5017286;28;20280;-23
2023/10/21 01:42:21;;;;;;;2.57;2.37;;;;;;;22.18;60.08;95235.16;5011112;28;20205;-23
2023/10/21 01:44:48;;;;;;;2.67;2.47;;;;;;;22.18;60.16;95237.72;5015219;28;20226;-25
2023/10/21 01:47:15;;;;;;;2.63;2.43;;;;;;;22.18;60.28;95257.31;5006644;28;20238;-22
2023/10/21 01:49:42;;;;;;;2.63;2.43;;;;;;;22.17;60.29;95251.34;5001218;28;20289;-30
2023/10/21 01:52:08;;;;;;;2.57;2.37;;;;;;;22.18;60.40;95252.22;5003295;28;20289;-23
2023/10/21 01:54:35;;;;;;;2.60;2.40;;;;;;;22.17;60.41;95255.63;5016244;28;20221;-23
2023/10/21 01:57:01;;;;;;;2.83;2.37;;;;;;;22.17;60.55;95265.88;5023840;28;20285;-23
2023/10/21 01:59:28;;;;;;;2.50;2.30;;;;;;;22.17;60.33;95263.31;5005802;28;20207;-23
2023/10/21 02:01:54;;;;;;;2.77;2.57;;;;;;;22.17;60.26;95266.69;5020674;28;20199;-24
2023/10/21 02:04:21;;;;;;;2.70;2.50;;;;;;;22.17;60.32;95276.09;5020424;28;20273;-23
2023/10/21 02:06:48;;;;;;;2.43;2.23;;;;;;;22.17;60.28;95289.72;5017261;28;20206;-22
2023/10/21 02:09:15;;;;;;;2.60;2.40;;;;;;;22.18;60.28;95298.25;5009235;28;20203;-22
2023/10/21 02:11:42;;;;;;;2.73;2.53;;;;;;;22.17;60.52;95296.56;5020535;28;20614;-22
2023/10/21 02:14:08;;;;;;;2.70;2.50;;;;;;;22.17;60.29;95297.41;5028116;28;20232;-23
2023/10/21 02:16:35;;;;;;;2.50;2.30;;;;;;;22.12;60.39;95293.19;5003990;28;20202;-22
2023/10/21 02:19:01;;;;;;;2.93;2.60;;;;;;;22.17;60.38;95324.72;5005232;28;20205;-22
2023/10/21 02:21:28;;;;;;;2.47;2.27;;;;;;;22.18;60.18;95308.50;5026618;28;20289;-22
2023/10/21 02:23:55;;;;;;;2.73;2.53;;;;;;;22.18;60.26;95322.13;5005087;28;20774;-23
2023/10/21 02:26:21;;;;;;;2.80;2.53;;;;;;;22.18;60.26;95318.72;5021545;28;20200;-23
2023/10/21 02:28:48;;;;;;;2.50;2.30;;;;;;;22.17;60.41;95322.16;5008989;28;20230;-22
2023/10/21 02:31:15;;;;;;;3.00;2.40;;;;;;;22.18;60.50;95328.94;5021952;28;20193;-23
2023/10/21 02:33:42;;;;;;;2.67;2.47;;;;;;;22.17;60.49;95329.81;5012104;28;20605;-23
2023/10/21 02:36:09;;;;;;;2.47;2.27;;;;;;;22.18;60.63;95334.06;5009948;28;20212;-23
2023/10/21 02:38:35;;;;;;;2.10;2.00;;;;;;;22.17;60.33;95338.31;5020028;28;20248;-23
2023/10/21 02:41:03;;;;;;;2.50;2.30;;;;;;;22.17;60.35;95340.88;5018822;28;20251;-22
2023/10/21 02:43:30;;;;;;;4.57;2.30;;;;;;;22.18;60.46;95341.75;5007109;28;20623;-23
2023/10/21 02:45:57;;;;;;;2.37;2.17;;;;;;;22.15;60.29;95340.06;5030137;28;20680;-22
2023/10/21 02:48:23;;;;;;;2.87;2.60;;;;;;;22.17;60.33;95343.44;4998545;28;20206;-22
2023/10/21 02:50:50;;;;;;;2.70;2.50;;;;;;;22.17;60.30;95343.44;5011114;28;20286;-22
2023/10/21 02:53:17;;;;;;;2.63;2.43;;;;;;;22.17;60.27;95363.06;5024178;28;20306;-23
2023/10/21 02:55:43;;;;;;;2.33;2.13;;;;;;;22.17;60.25;95361.34;5025114;28;20259;-22
2023/10/21 02:58:10;;;;;;;2.87;2.47;;;;;;;22.18;60.23;95357.09;5024855;28;20347;-23
2023/10/21 03:00:37;;;;;;;2.40;2.20;;;;;;;22.18;60.27;95359.66;5017666;28;20288;-23
2023/10/21 03:03:04;;;;;;;2.30;2.10;;;;;;;22.18;60.23;95357.09;5014572;28;20203;-23
2023/10/21 03:05:31;;;;;;;2.50;2.30;;;;;;;22.19;60.41;95364.75;5009325;28;20193;-23
2023/10/21 03:07:58;;;;;;;2.10;2.00;;;;;;;22.18;60.43;95360.50;5015337;28;20204;-23
2023/10/21 03:10:25;;;;;;;2.50;2.30;;;;;;;22.18;60.94;95365.63;5004675;28;20199;-23
2023/10/21 03:12:51;;;;;;;2.40;2.20;;;;;;;22.17;60.59;95363.91;5020056;28;20294;-23
2023/10/21 03:15:18;;;;;;;2.33;2.13;;;;;;;22.18;60.58;95372.44;5022119;28;20202;-25
2023/10/21 03:17:45;;;;;;;2.60;2.40;;;;;;;22.17;60.40;95379.25;5006783;28;20200;-22
2023/10/21 03:20:12;;;;;;;2.50;2.30;;;;;;;22.17;60.38;95384.38;5020506;28;20208;-23
2023/10/21 03:22:38;;;;;;;2.40;2.20;;;;;;;22.18;60.38;95387.78;5015636;28;20606;-23
2023/10/21 03:25:05;;;;;;;2.20;2.10;;;;;;;22.18;60.41;95392.91;5025818;28;20232;-23
2023/10/21 03:27:32;;;;;;;2.67;2.20;;;;;;;22.17;60.21;95397.16;5019724;28;20611;-22
2023/10/21 03:29:58;;;;;;;2.40;2.20;;;;;;;22.18;60.44;95392.91;5021642;28;20205;-23
2023/10/21 03:32:26;;;;;;;2.40;2.20;;;;;;;22.18;60.38;95401.44;5011172;28;20202;-23
2023/10/21 03:34:52;;;;;;;2.53;2.33;;;;;;;22.18;60.41;95392.91;5014582;28;20310;-23
2023/10/21 03:37:19;;;;;;;2.60;2.30;;;;;;;22.12;60.41;95387.84;5013175;28;20616;-24
2023/10/21 03:39:45;;;;;;;2.00;1.90;;;;;;;22.12;60.38;95387.84;5016411;28;20281;-23
2023/10/21 03:42:12;;;;;;;2.27;2.07;;;;;;;22.18;60.28;95403.13;5014660;28;20288;-23
2023/10/21 03:44:39;;;;;;;2.40;2.10;;;;;;;22.19;60.43;95404.81;5006839;28;20245;-23
2023/10/21 03:47:05;;;;;;;2.63;2.20;;;;;;;22.18;60.45;95406.56;5010264;28;20237;-22
2023/10/21 03:49:32;;;;;;;2.17;1.97;;;;;;;22.18;60.40;95413.38;5019329;28;20252;-23
2023/10/21 03:51:59;;;;;;;2.17;1.97;;;;;;;22.18;60.66;95419.34;5013735;28;20225;-23
2023/10/21 03:54:25;;;;;;;2.13;1.93;;;;;;;22.18;60.45;95429.59;5008617;28;20276;-23
2023/10/21 03:56:53;;;;;;;2.27;2.17;;;;;;;22.18;60.41;95433.84;5010453;28;20293;-23
2023/10/21 03:59:19;;;;;;;2.20;2.00;;;;;;;22.18;60.49;95421.06;5009769;28;20202;-25
2023/10/21 04:01:46;;;;;;;2.10;2.00;;;;;;;22.17;60.41;95434.72;5010165;28;20676;-23
2023/10/21 04:04:13;;;;;;;2.10;2.00;;;;;;;22.12;60.65;95426.19;5003223;28;20636;-25
2023/10/21 04:06:39;;;;;;;2.00;1.90;;;;;;;22.18;60.56;95434.69;5010141;28;20209;-23
2023/10/21 04:09:07;;;;;;;2.60;2.40;;;;;;;22.18;60.44;95444.94;5025607;28;20290;-23
2023/10/21 04:11:34;;;;;;;2.30;2.10;;;;;;;22.19;60.34;95449.19;5019136;28;20213;-23
2023/10/21 04:14:01;;;;;;;2.30;2.10;;;;;;;22.18;60.43;95444.06;5022164;28;20348;-23
2023/10/21 04:16:28;;;;;;;2.13;2.00;;;;;;;22.19;60.35;95454.28;5016560;28;20259;-23
2023/10/21 04:18:54;;;;;;;2.40;2.10;;;;;;;22.18;60.39;95444.94;5015589;28;20225;-23
2023/10/21 04:21:21;;;;;;;2.30;2.10;;;;;;;22.18;60.48;95450.06;5006643;28;20230;-23
2023/10/21 04:23:47;;;;;;;2.00;1.87;;;;;;;22.19;60.33;95463.66;5008032;28;20309;-24
2023/10/21 04:26:15;;;;;;;2.30;2.10;;;;;;;22.18;60.41;95460.28;5008597;28;20206;-23
2023/10/21 04:28:42;;;;;;;2.27;2.07;;;;;;;22.17;60.55;95463.69;5018668;28;20681;-23
2023/10/21 04:31:08;;;;;;;2.20;2.07;;;;;;;22.17;60.58;95476.47;5017279;28;20205;-23
2023/10/21 04:33:35;;;;;;;2.30;2.10;;;;;;;22.18;60.60;95479.88;5015608;28;20306;-24
2023/10/21 04:36:02;;;;;;;2.37;2.17;;;;;;;22.17;60.53;95485.88;5010983;28;20206;-22
2023/10/21 04:38:28;;;;;;;2.30;2.10;;;;;;;22.18;60.38;95487.56;5004882;28;20282;-23
2023/10/21 04:40:55;;;;;;;2.00;1.80;;;;;;;22.17;60.45;95498.66;5018456;28;20257;-24
2023/10/21 04:43:21;;;;;;;1.90;1.80;;;;;;;22.17;60.44;95499.50;5018671;28;20218;-24
2023/10/21 04:45:48;;;;;;;1.97;1.87;;;;;;;22.18;60.35;95498.66;5024016;28;20263;-23
2023/10/21 04:48:15;;;;;;;1.93;1.83;;;;;;;22.17;60.44;95496.94;5015501;28;20198;-23
2023/10/21 04:50:42;;;;;;;1.90;1.80;;;;;;;22.17;60.34;95499.50;5014810;28;20669;-23
2023/10/21 04:53:09;;;;;;;2.10;1.90;;;;;;;22.18;60.43;95503.78;5012122;28;20669;-23
2023/10/21 04:55:35;;;;;;;1.90;1.80;;;;;;;22.18;60.54;95508.88;5012374;28;20245;-23
2023/10/21 04:58:02;;;;;;;2.03;1.93;;;;;;;22.17;60.47;95524.25;5004503;28;20241;-26
2023/10/21 05:00:28;;;;;;;2.10;2.00;;;;;;;22.17;60.61;95519.97;5013622;28;20202;-22
2023/10/21 05:02:56;;;;;;;2.20;2.00;;;;;;;22.17;60.47;95527.63;5003451;28;20204;-24
2023/10/21 05:05:23;;;;;;;2.10;1.90;;;;;;;22.17;60.62;95524.25;5017923;28;20222;-23
2023/10/21 05:07:49;;;;;;;2.00;1.90;;;;;;;22.16;60.63;95535.31;5011419;28;20331;-23
2023/10/21 05:10:18;;;;;;;2.10;2.00;;;;;;;22.17;60.63;95542.16;5006101;28;20274;-23
2023/10/21 05:12:44;;;;;;;1.93;1.83;;;;;;;22.17;60.55;95545.53;5016726;28;20206;-23
2023/10/21 05:15:11;;;;;;;2.07;1.90;;;;;;;22.17;60.53;95553.22;5014226;28;20225;-23
2023/10/21 05:17:37;;;;;;;2.00;1.90;;;;;;;22.17;60.49;95555.78;5024100;28;20264;-23
2023/10/21 05:20:05;;;;;;;2.27;1.97;;;;;;;22.17;60.44;95560.91;5022893;28;20459;-23
2023/10/21 05:22:31;;;;;;;2.00;1.90;;;;;;;22.18;60.40;95560.06;5015274;28;20595;-26
2023/10/21 05:24:58;;;;;;;3.80;1.80;;;;;;;22.18;60.51;95559.19;5035689;22;20225;-30
2023/10/21 05:27:25;;;;;;;1.80;1.70;;;;;;;22.15;60.39;95567.75;5014167;28;20646;-26
2023/10/21 05:29:51;;;;;;;1.70;1.60;;;;;;;22.17;60.58;95576.25;5018891;28;20218;-26
2023/10/21 05:32:18;;;;;;;2.00;1.90;;;;;;;22.18;60.58;95584.78;5012431;28;20206;-28
2023/10/21 05:34:44;;;;;;;2.17;2.00;;;;;;;22.18;60.54;95588.19;5005695;28;20321;-27
2023/10/21 05:37:11;;;;;;;2.10;1.97;;;;;;;22.18;60.58;95597.56;4999451;28;20206;-26
2023/10/21 05:39:38;;;;;;;2.00;1.90;;;;;;;22.16;60.52;95605.25;4993745;28;20214;-27
2023/10/21 05:42:04;;;;;;;1.80;1.70;;;;;;;22.18;60.54;95611.22;5003852;28;20231;-32
2023/10/21 05:44:31;;;;;;;2.30;2.10;;;;;;;22.18;60.71;95620.59;4994068;28;20223;-26
2023/10/21 05:47:18;;;;;;;1.93;1.60;;;;;;;22.18;60.79;95629.13;5000028;28;20671;-26
2023/10/21 05:49:44;;;;;;;2.07;1.97;;;;;;;22.18;60.67;95628.28;4995820;28;20257;-26
2023/10/21 05:52:11;;;;;;;2.00;1.90;;;;;;;22.18;60.61;95641.06;4989799;28;20207;-28
2023/10/21 05:54:37;;;;;;;2.13;1.97;;;;;;;22.17;60.75;95644.50;4990701;28;20247;-26
2023/10/21 05:57:04;;;;;;;1.67;1.57;;;;;;;22.17;60.50;95647.88;5000231;28;20269;-26
2023/10/21 05:59:31;;;;;;;2.10;1.90;;;;;;;22.19;60.51;95655.56;4993142;28;20207;-28
2023/10/21 06:01:58;;;;;;;2.23;1.90;;;;;;;22.18;60.83;95658.97;4989021;28;20203;-27
2023/10/21 06:04:24;;;;;;;2.03;1.80;;;;;;;22.18;60.50;95661.53;4988026;28;20215;-26
2023/10/21 06:06:54;;;;;;;1.70;1.60;;;;;;;22.18;60.58;95667.50;4991051;28;20253;-26
2023/10/21 06:09:22;;;;;;;2.00;1.90;;;;;;;22.18;60.61;95676.88;4992539;28;20202;-26
2023/10/21 06:11:50;;;;;;;1.80;1.70;;;;;;;22.18;60.60;95687.13;4994990;28;20207;-26
2023/10/21 06:14:17;;;;;;;1.97;1.80;;;;;;;22.17;60.66;95685.44;4996039;28;20732;-26
2023/10/21 06:16:44;;;;;;;2.00;1.90;;;;;;;22.18;60.63;95694.78;4994157;28;20218;-26
2023/10/21 06:19:11;;;;;;;2.00;1.90;;;;;;;22.17;60.33;95698.22;4984199;28;20202;-27
2023/10/21 06:21:38;;;;;;;1.70;1.60;;;;;;;22.17;60.82;95705.88;4990126;28;20215;-29
2023/10/21 06:24:05;;;;;;;2.23;1.67;;;;;;;22.17;60.62;95709.28;4995376;28;20672;-27
2023/10/21 06:26:32;;;;;;;1.80;1.70;;;;;;;22.16;60.67;95710.16;4992943;28;20409;-29
2023/10/21 06:28:59;;;;;;;1.83;1.73;;;;;;;22.16;60.73;95714.41;4991426;28;20211;-31
2023/10/21 06:31:26;;;;;;;2.00;1.90;;;;;;;22.16;60.78;95722.94;4991920;28;20636;-26
2023/10/21 06:33:55;;;;;;;1.87;1.77;;;;;;;22.16;60.75;95727.19;4989485;28;20868;-29
2023/10/21 06:36:22;;;;;;;1.90;1.80;;;;;;;22.16;60.60;95728.06;4983683;28;20246;-26
2023/10/21 06:38:51;;;;;;;2.20;1.80;;;;;;;22.17;60.76;95731.47;4982595;28;20207;-26
2023/10/21 06:41:17;;;;;;;1.80;1.70;;;;;;;22.17;60.68;95739.16;4999891;28;20207;-26
2023/10/21 06:43:44;;;;;;;1.90;1.80;;;;;;;22.18;60.48;95745.97;4996294;28;20207;-26
2023/10/21 06:46:13;;;;;;;1.80;1.70;;;;;;;22.18;60.40;95741.72;4994690;28;20218;-29
2023/10/21 06:48:40;;;;;;;1.73;1.63;;;;;;;22.19;60.33;95747.66;4983579;28;20210;-27
2023/10/21 06:51:06;;;;;;;1.80;1.70;;;;;;;22.20;60.25;95751.94;4989113;28;20562;-26
2023/10/21 06:53:33;;;;;;;1.70;1.60;;;;;;;22.19;60.47;95752.78;4986852;28;20199;-26
2023/10/21 06:55:59;;;;;;;1.70;1.60;;;;;;;22.19;60.43;95753.63;4986971;28;20321;-28
2023/10/21 06:58:26;;;;;;;1.80;1.70;;;;;;;22.16;60.55;95755.34;4982573;28;20203;-28
2023/10/21 07:00:53;;;;;;;1.83;1.73;;;;;;;22.19;60.88;95753.63;4993632;28;20215;-29
2023/10/21 07:03:19;;;;;;;1.80;1.70;;;;;;;22.19;60.57;95766.44;4994013;28;20258;-36
2023/10/21 07:05:49;;;;;;;1.80;1.70;;;;;;;22.19;60.30;95771.53;4990594;28;20223;-26
2023/10/21 07:08:16;;;;;;;1.80;1.70;;;;;;;22.20;60.46;95774.97;4995135;28;20202;-35
2023/10/21 07:10:43;;;;;;;1.80;1.70;;;;;;;22.18;60.70;95774.97;4999889;28;20207;-26
2023/10/21 07:13:10;;;;;;;1.90;1.80;;;;;;;22.18;60.50;95785.19;4993303;28;20206;-26
2023/10/21 07:15:36;;;;;;;1.90;1.80;;;;;;;22.19;60.51;95788.59;4993576;28;20265;-29
2023/10/21 07:18:03;;;;;;;1.63;1.53;;;;;;;22.20;60.46;95795.44;4992263;28;20261;-26
2023/10/21 07:20:30;;;;;;;1.67;1.57;;;;;;;22.20;60.42;95792.88;4989366;28;20255;-30
2023/10/21 07:22:57;;;;;;;1.90;1.80;;;;;;;22.20;60.41;95803.13;4991059;28;20203;-28
2023/10/21 07:25:24;;;;;;;2.13;1.93;;;;;;;22.20;60.51;95810.78;4986160;28;20230;-26
2023/10/21 07:27:50;;;;;;;1.97;1.73;;;;;;;22.18;60.28;95805.66;4995254;28;20203;-26
2023/10/21 07:30:17;;;;;;;4.23;2.00;;;;;;;22.18;60.33;95803.13;4992218;28;20195;-26
2023/10/21 07:32:44;;;;;;;2.23;1.93;;;;;;;22.17;60.05;95805.69;5001127;28;20209;-28
2023/10/21 07:35:11;;;;;;;2.83;2.03;;;;;;;22.18;60.36;95809.94;4991458;28;20605;-35
2023/10/21 07:37:37;;;;;;;2.30;1.77;;;;;;;22.16;60.52;95809.94;4999353;28;20211;-26
2023/10/21 07:40:06;;;;;;;1.93;1.80;;;;;;;22.17;60.43;95814.19;4993979;28;20659;-27
2023/10/21 07:42:32;;;;;;;5.47;2.10;;;;;;;22.17;60.35;95831.25;4990468;28;20392;-26
2023/10/21 07:44:59;;;;;;;3.37;2.00;;;;;;;22.15;60.57;95844.06;4992622;28;20258;-26
2023/10/21 07:47:26;;;;;;;2.10;1.90;;;;;;;22.15;60.40;95845.75;5001972;28;20645;-29
2023/10/21 07:49:53;;;;;;;2.23;2.03;;;;;;;22.15;60.37;95844.06;4982308;28;20226;-26
2023/10/21 07:52:22;;;;;;;2.53;2.10;;;;;;;22.15;60.44;95844.06;4992308;28;20666;-29
2023/10/21 07:54:48;;;;;;;2.47;1.80;;;;;;;22.15;60.29;95846.59;4997635;28;20277;-26
2023/10/21 07:57:15;;;;;;;2.37;1.93;;;;;;;22.15;60.30;95848.31;4995856;28;20551;-26
2023/10/21 07:59:42;;;;;;;2.07;1.77;;;;;;;22.15;60.28;95858.53;4991335;28;20246;-32
2023/10/21 08:02:09;;;;;;;2.60;1.80;;;;;;;22.15;60.25;95864.53;4997874;28;20230;-26
2023/10/21 08:04:36;;;;;;;1.70;1.60;;;;;;;22.16;60.23;95865.34;4995890;28;20694;-26
2023/10/21 08:07:03;;;;;;;2.00;1.80;;;;;;;22.15;60.35;95868.78;4994834;28;20203;-26
2023/10/21 08:09:30;;;;;;;2.30;1.80;;;;;;;22.16;60.77;95880.69;4996110;28;20249;-26
2023/10/21 08:11:56;;;;;;;3.07;2.50;;;;;;;22.15;61.10;95876.44;4993373;28;20265;-26
2023/10/21 08:14:23;;;;;;;6.73;3.50;;;;;;;22.14;61.55;95878.13;4989294;28;20219;-27
2023/10/21 08:16:49;;;;;;;6.97;4.00;;;;;;;22.15;61.62;95894.34;4992673;28;20294;-27
2023/10/21 08:19:16;;;;;;;7.53;4.03;;;;;;;22.14;61.22;95885.81;5003670;28;20203;-26
2023/10/21 08:21:43;;;;;;;6.53;3.57;;;;;;;22.13;61.17;95885.81;4994457;28;20202;-29
2023/10/21 08:24:11;;;;;;;6.17;3.93;;;;;;;22.14;61.07;95897.78;4996009;28;20727;-26
2023/10/21 08:26:37;;;;;;;6.47;3.80;;;;;;;22.05;61.22;95887.53;5003419;28;20647;-27
2023/10/21 08:29:05;;;;;;;4.87;3.10;;;;;;;22.15;61.06;95889.25;4997142;28;20199;-26
2023/10/21 08:31:32;;;;;;;4.93;3.30;;;;;;;22.16;61.02;95896.06;4990117;28;20199;-26
2023/10/21 08:33:59;;;;;;;6.10;3.73;;;;;;;22.15;60.87;95902.03;5001688;28;20227;-26
2023/10/21 08:36:26;;;;;;;6.80;3.23;;;;;;;22.15;61.05;95907.16;4993423;28;20305;-31
2023/10/21 08:38:53;;;;;;;6.70;3.63;;;;;;;22.15;60.97;95918.25;4998245;28;20257;-26
2023/10/21 08:41:20;;;;;;;6.10;3.30;;;;;;;22.15;60.99;95918.25;4999981;28;20207;-31
2023/10/21 08:43:49;;;;;;;4.97;3.00;;;;;;;22.15;61.03;95912.25;4993504;28;20208;-27
2023/10/21 08:46:16;;;;;;;4.90;3.30;;;;;;;22.14;60.98;95911.41;5002187;28;20198;-26
2023/10/21 08:48:47;;;;;;;4.30;3.03;;;;;;;22.12;60.79;95912.25;4984107;28;20295;-26
2023/10/21 08:51:17;;;;;;;5.97;3.03;;;;;;;22.16;60.95;95925.06;4996818;28;20250;-26
2023/10/21 08:53:46;;;;;;;4.43;3.00;;;;;;;22.15;60.98;95923.38;4988880;28;20203;-35
2023/10/21 08:56:13;;;;;;;4.30;3.23;;;;;;;22.15;61.12;95918.25;4987563;28;20251;-30
2023/10/21 08:58:41;;;;;;;4.07;3.20;;;;;;;22.12;60.89;95919.94;4986722;28;20234;-26
2023/10/21 09:01:08;;;;;;;4.80;3.20;;;;;;;22.15;60.86;95925.91;4995587;28;20382;-26
2023/10/21 09:03:34;;;;;;;6.67;3.37;;;;;;;22.16;60.85;95931.88;4988816;28;20232;-26
2023/10/21 09:06:06;;;;;;;5.03;3.20;;;;;;;22.14;60.82;95928.47;4992509;28;20282;-29
2023/10/21 09:08:34;;;;;;;5.10;3.00;;;;;;;22.16;61.00;95931.88;4984256;28;20239;-28
2023/10/21 09:11:02;;;;;;;4.57;3.27;;;;;;;22.16;60.87;95935.28;4988273;28;20200;-26
2023/10/21 09:13:30;;;;;;;6.00;3.30;;;;;;;22.09;60.96;95928.47;4986903;28;20665;-28
2023/10/21 09:15:57;;;;;;;4.93;3.17;;;;;;;22.16;60.84;95940.41;4994487;28;20700;-28
2023/10/21 09:18:24;;;;;;;5.60;3.63;;;;;;;22.18;60.67;95948.94;4991886;28;20198;-27
2023/10/21 09:20:51;;;;;;;8.23;3.33;;;;;;;22.17;60.67;95952.34;4997812;28;20221;-26
2023/10/21 09:23:17;;;;;;;8.23;3.70;;;;;;;22.17;60.89;95957.47;4983940;28;20326;-31
2023/10/21 09:25:51;;;;;;;5.60;3.23;;;;;;;22.17;60.76;95967.69;4992175;28;20258;-26
2023/10/21 09:28:24;;;;;;;7.60;3.57;;;;;;;22.17;60.92;95964.31;4991237;28;20202;-26
2023/10/21 09:30:56;;;;;;;7.63;3.90;;;;;;;22.16;60.79;95960.00;4990693;28;20209;-26
2023/10/21 09:33:22;;;;;;;9.63;3.87;;;;;;;22.18;60.84;95971.97;4992213;28;20268;-26
2023/10/21 09:36:03;;;;;;;7.50;3.67;;;;;;;22.18;60.63;95971.97;4990958;28;20254;-26
2023/10/21 09:38:49;;;;;;;8.73;3.93;;;;;;;22.19;60.75;95971.13;4986992;28;20280;-27
2023/10/21 09:41:17;;;;;;;5.60;3.60;;;;;;;22.18;60.56;95979.66;4994925;28;20277;-26
2023/10/21 09:43:44;;;;;;;8.63;3.33;;;;;;;22.19;60.71;95971.13;4986826;28;20203;-28
2023/10/21 09:46:10;;;;;;;11.20;4.07;;;;;;;22.17;60.67;95967.69;4976556;28;20203;-33
2023/10/21 09:48:41;;;;;;;7.27;3.97;;;;;;;22.20;60.44;95979.66;4981103;28;20568;-28
2023/10/21 09:51:09;;;;;;;5.57;4.03;;;;;;;22.19;60.83;95983.91;4970604;28;20210;-27
2023/10/21 09:53:40;;;;;;;6.87;4.10;;;;;;;22.21;60.60;95983.91;4989950;28;20248;-27
2023/10/21 09:56:10;;;;;;;6.00;3.77;;;;;;;22.21;60.88;95983.91;5002741;28;20219;-27
2023/10/21 09:58:39;;;;;;;6.53;4.10;;;;;;;22.19;60.65;95988.16;5005312;28;20202;-26
2023/10/21 10:01:05;;;;;;;6.50;3.90;;;;;;;22.20;60.77;95990.72;5000615;28;20198;-29
2023/10/21 10:03:34;;;;;;;6.10;4.10;;;;;;;22.21;60.90;96009.50;4989442;28;20208;-26
2023/10/21 10:06:05;;;;;;;6.43;4.27;;;;;;;22.21;60.92;95997.56;4982912;28;20196;-26
2023/10/21 10:08:33;;;;;;;7.40;4.30;;;;;;;22.22;61.49;95998.41;5007175;28;20289;-29
2023/10/21 10:11:07;;;;;;;6.87;4.50;;;;;;;22.22;61.12;96003.53;4998135;28;20811;-27
2023/10/21 10:13:34;;;;;;;11.47;4.40;;;;;;;22.20;60.80;95995.00;4992296;28;20289;-26
2023/10/21 10:16:18;;;;;;;7.63;4.60;;;;;;;22.24;61.05;96004.41;4983484;28;20251;-32
2023/10/21 10:18:50;;;;;;;9.00;4.33;;;;;;;22.26;60.99;95997.59;4993334;28;20237;-27
2023/10/21 10:21:18;;;;;;;7.80;4.70;;;;;;;22.27;61.04;95992.47;4985598;28;20203;-26
2023/10/21 10:23:51;;;;;;;9.73;4.37;;;;;;;22.28;61.09;95991.63;4992441;28;20234;-28
2023/10/21 10:26:37;;;;;;;6.43;4.23;;;;;;;22.28;61.07;95989.06;4997361;28;20199;-26
2023/10/21 10:29:36;;;;;;;8.53;4.47;;;;;;;22.30;60.94;95999.28;4988366;28;20200;-26
2023/10/21 10:32:16;;;;;;;7.43;4.47;;;;;;;22.31;60.87;95999.28;4949765;28;20261;-30
2023/10/21 10:34:57;;;;;;;7.07;4.23;;;;;;;22.31;60.98;96001.84;4993795;28;20234;-26
2023/10/21 10:37:30;;;;;;;6.80;4.60;;;;;;;22.30;60.94;96002.72;4988421;28;20205;-28
2023/10/21 10:39:57;;;;;;;6.57;4.07;;;;;;;22.30;60.83;95996.72;4989769;28;20202;-30
2023/10/21 10:42:28;;;;;;;7.07;4.80;;;;;;;22.30;60.88;95992.47;4995596;28;20654;-26
2023/10/21 10:44:55;;;;;;;8.07;4.47;;;;;;;22.29;60.98;95995.03;4979695;28;20230;-26
2023/10/21 10:47:22;;;;;;;6.67;3.60;;;;;;;22.29;60.99;95993.31;4993143;28;20210;-27
2023/10/21 10:49:59;;;;;;;9.83;5.17;;;;;;;22.14;60.96;95969.41;5000591;28;20234;-26
2023/10/21 10:52:33;;;;;;;5.63;4.23;;;;;;;22.31;60.91;95996.72;4992542;28;20297;-29
2023/10/21 10:54:59;;;;;;;7.80;4.60;;;;;;;22.31;60.79;95996.72;4992849;28;20304;-28
2023/10/21 10:57:28;;;;;;;7.10;4.60;;;;;;;22.32;60.84;95997.59;4987505;28;20203;-26
2023/10/21 10:59:55;;;;;;;7.00;4.40;;;;;;;22.30;60.91;95995.03;4990760;28;20225;-26
2023/10/21 11:02:24;;;;;;;5.87;4.40;;;;;;;22.33;60.71;95995.03;5014079;28;20199;-28
2023/10/21 11:04:51;;;;;;;6.10;3.93;;;;;;;22.34;60.62;95990.75;5004433;28;20718;-26
2023/10/21 11:07:18;;;;;;;6.07;4.23;;;;;;;22.35;60.70;96002.72;4988941;28;20654;-26
2023/10/21 11:09:45;;;;;;;5.73;4.20;;;;;;;22.34;60.75;96009.53;5001064;28;20202;-27
2023/10/21 11:12:14;;;;;;;5.83;4.10;;;;;;;22.33;60.86;96001.84;5003187;28;20605;-26
2023/10/21 11:14:42;;;;;;;6.07;4.03;;;;;;;22.33;60.77;95999.31;4994463;28;20227;-28
2023/10/21 11:17:10;;;;;;;6.07;4.27;;;;;;;22.33;60.77;96002.72;4983897;28;20226;-29
2023/10/21 11:19:36;;;;;;;6.10;4.13;;;;;;;22.31;60.81;96001.00;4989609;28;20257;-31
2023/10/21 11:22:08;;;;;;;6.83;4.50;;;;;;;22.34;60.61;96011.22;4976412;28;20207;-27
2023/10/21 11:24:35;;;;;;;6.17;4.10;;;;;;;22.33;60.87;96015.53;5020769;22;20237;-34
2023/10/21 11:27:04;;;;;;;7.97;4.27;;;;;;;22.28;60.60;96008.66;5024831;28;20664;-23
2023/10/21 11:29:31;;;;;;;8.97;4.17;;;;;;;22.19;60.69;95996.72;5007313;28;20297;-24
2023/10/21 11:31:57;;;;;;;6.87;4.53;;;;;;;22.34;60.83;96024.91;5010052;28;20247;-26
2023/10/21 11:34:24;;;;;;;6.83;3.83;;;;;;;22.36;60.75;96022.34;5026573;28;20232;-24
2023/10/21 11:36:51;;;;;;;7.17;4.40;;;;;;;22.36;60.69;96014.66;5028643;28;20222;-24